Time;durP1;ratioP1;P1;durP2;ratioP2;P2;SDS_P1;SDS_P2;PMS_P1;PMS_P2;Temp;Humidity;BMP_temperature;BMP_pressure;BME280_temperature;BME280_humidity;BME280_pressure;Samples;Min_cycle;Max_cycle;Signal;HPM_P1;HPM_P2
2021/12/09 00:02:08;;;;;;;0.40;0.40;;;;;;;4.89;69.28;99703.31;5160600;28;20587;-79
2021/12/09 00:04:38;;;;;;;0.50;0.50;;;;;;;4.88;69.76;99714.59;5195884;28;20056;-79
2021/12/09 00:07:09;;;;;;;4.55;2.30;;;;;;;4.82;69.74;99705.16;5163189;28;20029;-81
2021/12/09 00:09:39;;;;;;;2.05;1.95;;;;;;;4.87;69.86;99710.25;5161932;28;20087;-81
2021/12/09 00:12:10;;;;;;;0.70;0.70;;;;;;;4.86;70.20;99705.94;5188162;28;20225;-78
2021/12/09 00:14:40;;;;;;;0.85;0.85;;;;;;;4.85;69.72;99709.44;5193754;28;20037;-78
2021/12/09 00:17:11;;;;;;;0.93;0.93;;;;;;;4.87;69.29;99700.75;5197079;28;20092;-79
2021/12/09 00:19:42;;;;;;;0.55;0.55;;;;;;;4.88;69.33;99701.59;5182185;28;20042;-80
2021/12/09 00:22:12;;;;;;;1.38;1.27;;;;;;;4.78;70.29;99700.91;5191821;28;20105;-80
2021/12/09 00:24:43;;;;;;;0.88;0.88;;;;;;;4.81;69.90;99702.59;5195530;28;20044;-80
2021/12/09 00:27:13;;;;;;;0.50;0.50;;;;;;;4.68;69.51;99702.81;5198033;28;20022;-80
2021/12/09 00:29:44;;;;;;;0.80;0.80;;;;;;;4.72;70.24;99704.50;5198021;28;20098;-79
2021/12/09 00:32:14;;;;;;;0.47;0.47;;;;;;;4.75;69.38;99703.56;5158369;28;20022;-79
2021/12/09 00:34:48;;;;;;;4.53;1.27;;;;;;;4.75;69.34;99702.72;5179516;28;20071;-80
2021/12/09 00:37:26;;;;;;;;;;;;;;;4.64;70.25;99703.78;5194441;28;20037;-79
2021/12/09 00:39:57;;;;;;;0.90;0.90;;;;;;;4.64;70.58;99708.97;5192896;28;19970;-80
2021/12/09 00:42:27;;;;;;;0.50;0.50;;;;;;;4.57;70.18;99703.03;5182430;28;20409;-79
2021/12/09 00:44:58;;;;;;;0.52;0.52;;;;;;;4.61;70.23;99706.44;5160414;28;20049;-79
2021/12/09 00:47:30;;;;;;;1.05;1.05;;;;;;;4.68;70.32;99707.19;5181196;28;20484;-80
2021/12/09 00:50:02;;;;;;;0.77;0.77;;;;;;;4.62;69.71;99702.94;5179215;28;20060;-80
2021/12/09 00:52:32;;;;;;;0.50;0.50;;;;;;;4.68;69.92;99715.81;5170232;28;20052;-79
2021/12/09 00:55:05;;;;;;;0.60;0.60;;;;;;;4.62;69.91;99713.34;5170090;28;20076;-80
2021/12/09 00:57:38;;;;;;;0.50;0.50;;;;;;;4.64;69.23;99708.97;5165411;28;20034;-77
2021/12/09 01:00:13;;;;;;;1.05;1.05;;;;;;;4.62;69.49;99708.16;5186700;28;20288;-78
2021/12/09 01:02:43;;;;;;;0.95;0.95;;;;;;;4.57;70.11;99702.19;5189996;28;20030;-80
2021/12/09 01:05:14;;;;;;;1.08;1.08;;;;;;;4.52;69.86;99707.47;5195225;28;20102;-78
2021/12/09 01:07:45;;;;;;;0.88;0.88;;;;;;;4.49;70.00;99706.66;5200301;28;20035;-79
2021/12/09 01:10:16;;;;;;;0.50;0.50;;;;;;;4.43;70.17;99701.56;5181346;28;20050;-80
2021/12/09 01:12:46;;;;;;;0.40;0.40;;;;;;;4.43;69.77;99707.63;5196085;28;20080;-79
2021/12/09 01:15:19;;;;;;;0.68;0.65;;;;;;;4.46;69.88;99712.78;5200004;28;20040;-79
2021/12/09 01:17:50;;;;;;;0.73;0.73;;;;;;;4.44;70.28;99711.94;5178577;28;20037;-80
2021/12/09 01:20:25;;;;;;;1.35;1.25;;;;;;;4.42;70.21;99711.09;5190755;28;20033;-80
2021/12/09 01:22:57;;;;;;;0.90;0.90;;;;;;;4.38;70.24;99718.09;5184834;28;20036;-79
2021/12/09 01:25:32;;;;;;;0.50;0.50;;;;;;;4.31;70.63;99719.09;5186243;28;20041;-79
2021/12/09 01:28:08;;;;;;;0.50;0.50;;;;;;;4.33;70.54;99717.34;5204444;28;20022;-81
2021/12/09 01:30:38;;;;;;;0.70;0.70;;;;;;;4.35;69.90;99722.50;5183153;28;20035;-80
2021/12/09 01:33:10;;;;;;;1.83;1.73;;;;;;;4.32;69.98;99731.19;5182134;28;20038;-78
2021/12/09 01:35:46;;;;;;;1.20;1.20;;;;;;;4.33;70.16;99729.44;5186322;28;20105;-78
2021/12/09 01:38:18;;;;;;;8.73;2.50;;;;;;;4.37;70.19;99739.75;5201035;28;20029;-77
2021/12/09 01:40:48;;;;;;;0.80;0.80;;;;;;;4.34;70.14;99737.19;5182811;28;20028;-77
2021/12/09 01:43:19;;;;;;;1.05;1.05;;;;;;;4.39;69.91;99743.19;5187671;28;20033;-79
2021/12/09 01:46:07;;;;;;;0.60;0.60;;;;;;;4.27;70.95;99739.94;5190890;28;20151;-80
2021/12/09 01:48:40;;;;;;;0.60;0.60;;;;;;;4.28;69.82;99739.06;5175092;28;20021;-76
2021/12/09 01:51:11;;;;;;;16.85;1.83;;;;;;;4.24;70.38;99735.66;5181996;28;20033;-77
2021/12/09 01:53:42;;;;;;;0.60;0.60;;;;;;;4.29;69.98;99740.78;5157653;28;20038;-78
2021/12/09 01:56:21;;;;;;;1.27;1.23;;;;;;;4.31;69.73;99739.88;5180066;28;20037;-77
2021/12/09 01:58:55;;;;;;;0.55;0.55;;;;;;;4.26;70.30;99736.47;5198012;28;20033;-76
2021/12/09 02:01:26;;;;;;;2.05;1.65;;;;;;;4.29;70.06;99739.03;5179287;28;20730;-77
2021/12/09 02:04:00;;;;;;;2.15;2.05;;;;;;;4.30;69.96;99742.50;5183464;28;20093;-77
2021/12/09 02:06:31;;;;;;;0.63;0.63;;;;;;;4.23;70.26;99737.38;5197401;28;20551;-77
2021/12/09 02:09:02;;;;;;;1.08;1.08;;;;;;;4.26;70.10;99736.47;5185002;28;20032;-78
2021/12/09 02:11:33;;;;;;;6.03;1.38;;;;;;;4.23;69.82;99739.16;5163765;28;20121;-78
2021/12/09 02:14:05;;;;;;;1.40;1.30;;;;;;;4.18;69.70;99743.53;5162520;28;20167;-79
2021/12/09 02:16:36;;;;;;;0.40;0.40;;;;;;;4.22;69.98;99740.03;5203376;28;20147;-79
2021/12/09 02:19:10;;;;;;;0.88;0.88;;;;;;;4.22;70.25;99745.22;5178245;28;20029;-79
2021/12/09 02:21:42;;;;;;;0.40;0.40;;;;;;;4.18;69.52;99748.72;5199650;28;20037;-80
2021/12/09 02:24:16;;;;;;;0.50;0.50;;;;;;;4.17;70.49;99740.09;5179543;28;20431;-81
2021/12/09 02:26:51;;;;;;;0.88;0.70;;;;;;;4.17;70.15;99741.84;5173877;28;20033;-80
2021/12/09 02:29:22;;;;;;;0.60;0.60;;;;;;;4.19;69.75;99738.34;5212934;28;20054;-80
2021/12/09 02:31:56;;;;;;;1.30;1.20;;;;;;;4.18;69.28;99733.16;5198006;28;20042;-80
2021/12/09 02:34:28;;;;;;;0.60;0.60;;;;;;;4.08;69.39;99728.13;5166506;28;20040;-81
2021/12/09 02:36:59;;;;;;;0.57;0.57;;;;;;;4.13;69.79;99734.97;5183702;28;20029;-80
2021/12/09 02:39:29;;;;;;;0.40;0.40;;;;;;;4.07;69.89;99731.63;5176311;28;20036;-81
2021/12/09 02:42:00;;;;;;;0.73;0.68;;;;;;;4.06;69.34;99736.81;5178683;28;20029;-78
2021/12/09 02:44:31;;;;;;;0.50;0.50;;;;;;;4.07;69.54;99738.53;5196608;28;20207;-78
2021/12/09 02:47:02;;;;;;;1.50;1.40;;;;;;;4.07;70.18;99736.81;5167669;28;20039;-78
2021/12/09 02:49:34;;;;;;;0.75;0.75;;;;;;;4.07;69.30;99738.53;5189908;28;20065;-79
2021/12/09 02:52:04;;;;;;;0.98;0.98;;;;;;;3.97;69.99;99737.81;5191536;28;20553;-78
2021/12/09 02:54:35;;;;;;;1.33;1.30;;;;;;;3.96;70.01;99738.69;5193867;28;20042;-78
2021/12/09 02:57:07;;;;;;;0.50;0.50;;;;;;;3.92;69.63;99739.66;5176086;28;20087;-78
2021/12/09 02:59:38;;;;;;;1.67;1.58;;;;;;;3.92;69.91;99737.06;5190087;28;20046;-78
2021/12/09 03:02:10;;;;;;;0.50;0.50;;;;;;;3.94;69.88;99741.34;5169684;28;20025;-78
2021/12/09 03:04:51;;;;;;;0.50;0.50;;;;;;;3.82;70.36;99740.66;5208893;28;20037;-80
2021/12/09 03:07:25;;;;;;;1.00;1.00;;;;;;;3.87;69.88;99737.13;5178011;28;20018;-79
2021/12/09 03:10:17;;;;;;;0.63;0.63;;;;;;;3.81;70.28;99741.53;5180524;28;20120;-79
2021/12/09 03:12:50;;;;;;;5.38;3.10;;;;;;;3.81;70.40;99744.97;5176833;28;20033;-79
2021/12/09 03:15:22;;;;;;;0.70;0.70;;;;;;;3.77;70.05;99738.13;5173507;28;20049;-79
2021/12/09 03:17:53;;;;;;;0.70;0.70;;;;;;;3.68;70.36;99736.50;5171588;28;20071;-79
2021/12/09 03:20:23;;;;;;;0.55;0.55;;;;;;;3.68;70.36;99744.28;5157231;28;20034;-78
2021/12/09 03:22:54;;;;;;;0.60;0.60;;;;;;;3.72;69.86;99743.38;5177534;28;20030;-81
2021/12/09 03:25:24;;;;;;;0.50;0.50;;;;;;;3.67;70.03;99742.63;5169479;28;20037;-81
2021/12/09 03:27:55;;;;;;;0.40;0.40;;;;;;;3.66;70.16;99740.88;5160270;28;20045;-81
2021/12/09 03:30:25;;;;;;;0.60;0.60;;;;;;;3.62;70.01;99739.22;5190993;28;20017;-78
2021/12/09 03:32:56;;;;;;;1.42;1.40;;;;;;;3.61;70.64;99732.31;5190543;28;20026;-78
2021/12/09 03:35:27;;;;;;;0.50;0.50;;;;;;;3.58;70.47;99728.03;5175214;28;20118;-78
2021/12/09 03:37:58;;;;;;;1.17;1.15;;;;;;;3.65;70.22;99733.09;5179021;28;20036;-79
2021/12/09 03:40:29;;;;;;;0.50;0.50;;;;;;;3.59;70.77;99737.50;5168221;28;20527;-78
2021/12/09 03:42:59;;;;;;;1.75;1.65;;;;;;;3.57;70.57;99728.91;5178311;28;20026;-78
2021/12/09 03:45:30;;;;;;;0.60;0.60;;;;;;;3.59;70.75;99731.47;5172329;28;20030;-79
2021/12/09 03:48:02;;;;;;;0.75;0.75;;;;;;;3.59;70.73;99737.50;5192021;28;20072;-78
2021/12/09 03:50:33;;;;;;;0.50;0.50;;;;;;;3.54;71.57;99734.16;5177627;28;20052;-78
2021/12/09 03:53:04;;;;;;;0.50;0.50;;;;;;;3.55;71.20;99738.47;5191476;28;20022;-78
2021/12/09 03:55:34;;;;;;;0.50;0.50;;;;;;;3.59;71.17;99731.47;5157186;28;20029;-79
2021/12/09 03:58:05;;;;;;;1.73;1.65;;;;;;;3.61;71.08;99734.88;5179529;28;20157;-78
2021/12/09 04:00:36;;;;;;;1.45;1.35;;;;;;;3.63;70.47;99738.34;5157086;28;20441;-78
2021/12/09 04:03:08;;;;;;;0.80;0.80;;;;;;;3.57;71.14;99735.84;5195861;28;20384;-77
2021/12/09 04:05:38;;;;;;;1.15;1.15;;;;;;;3.57;70.98;99735.84;5169460;28;20232;-79
2021/12/09 04:08:09;;;;;;;1.85;1.75;;;;;;;3.56;71.28;99742.75;5178060;28;20036;-79
2021/12/09 04:10:40;;;;;;;0.85;0.85;;;;;;;3.58;71.18;99732.38;5169020;28;20033;-78
2021/12/09 04:13:11;;;;;;;7.57;2.15;;;;;;;3.59;70.46;99734.94;5193472;28;20022;-79
2021/12/09 04:15:42;;;;;;;0.55;0.55;;;;;;;3.59;70.76;99728.91;5179457;28;20034;-79
2021/12/09 04:18:13;;;;;;;0.50;0.50;;;;;;;3.62;70.26;99731.41;5178321;28;20028;-78
2021/12/09 04:20:43;;;;;;;0.52;0.52;;;;;;;3.62;70.21;99737.50;5196801;28;20548;-78
2021/12/09 04:23:14;;;;;;;0.50;0.50;;;;;;;3.61;71.00;99733.19;5182717;28;20040;-78
2021/12/09 04:25:44;;;;;;;0.93;0.93;;;;;;;3.67;70.60;99736.53;5198356;28;20079;-78
2021/12/09 04:28:15;;;;;;;2.08;0.75;;;;;;;3.66;70.58;99740.88;5182039;28;20655;-78
2021/12/09 04:30:45;;;;;;;5.05;1.65;;;;;;;3.67;69.83;99740.00;5176129;28;20038;-78
2021/12/09 04:33:16;;;;;;;1.92;1.75;;;;;;;3.67;70.35;99740.00;5184178;28;20029;-79
2021/12/09 04:35:47;;;;;;;0.50;0.50;;;;;;;3.57;70.05;99744.47;5197074;28;20040;-79
2021/12/09 04:38:18;;;;;;;0.60;0.60;;;;;;;3.52;70.92;99748.00;5197694;28;20125;-78
2021/12/09 04:40:48;;;;;;;1.15;1.08;;;;;;;3.46;71.02;99744.63;5182644;28;20060;-79
2021/12/09 04:43:19;;;;;;;0.68;0.68;;;;;;;3.50;70.38;99754.97;5179927;28;20041;-78
2021/12/09 04:45:50;;;;;;;0.40;0.40;;;;;;;3.58;70.13;99756.56;5195065;28;20041;-78
2021/12/09 04:48:20;;;;;;;0.68;0.68;;;;;;;3.57;70.89;99761.78;5179717;28;20072;-79
2021/12/09 04:50:51;;;;;;;0.93;0.93;;;;;;;3.55;70.21;99769.59;5187057;28;20092;-79
2021/12/09 04:53:22;;;;;;;0.63;0.63;;;;;;;3.53;70.48;99771.34;5197484;28;20044;-79
2021/12/09 04:55:53;;;;;;;0.52;0.52;;;;;;;3.49;70.79;99777.41;5198997;28;20038;-80
2021/12/09 04:58:23;;;;;;;0.50;0.50;;;;;;;3.48;70.56;99780.88;5181799;28;20112;-79
2021/12/09 05:00:56;;;;;;;0.50;0.50;;;;;;;3.55;70.02;99774.78;5180336;28;20033;-79
2021/12/09 05:03:27;;;;;;;0.60;0.60;;;;;;;3.46;70.51;99788.69;5193783;28;20036;-79
2021/12/09 05:05:58;;;;;;;0.63;0.63;;;;;;;3.50;69.53;99792.09;5202545;28;20033;-78
2021/12/09 05:08:32;;;;;;;1.83;1.10;;;;;;;3.37;70.28;99796.59;5192836;28;20079;-79
2021/12/09 05:11:13;;;;;;;0.40;0.40;;;;;;;3.43;69.81;99793.06;5174603;28;20041;-78
2021/12/09 05:13:43;;;;;;;0.50;0.50;;;;;;;3.35;70.49;99800.94;5197122;28;20091;-78
2021/12/09 05:16:14;;;;;;;0.60;0.60;;;;;;;3.44;70.34;99793.03;5191425;28;20599;-79
2021/12/09 05:18:44;;;;;;;0.50;0.50;;;;;;;3.38;70.22;99806.09;5193206;28;20038;-78
2021/12/09 05:21:17;;;;;;;0.40;0.40;;;;;;;3.40;69.94;99806.94;5193552;28;20083;-78
2021/12/09 05:23:47;;;;;;;0.40;0.40;;;;;;;3.36;69.91;99809.59;5174992;28;20063;-78
2021/12/09 05:26:19;;;;;;;0.47;0.47;;;;;;;3.35;70.02;99813.06;5188675;28;20037;-79
2021/12/09 05:28:55;;;;;;;0.73;0.73;;;;;;;3.29;70.20;99813.97;5195634;28;20033;-80
2021/12/09 05:34:17;;;;;;;1.25;1.15;;;;;;;3.30;69.80;99820.88;5189418;28;20715;-78
2021/12/09 05:36:48;;;;;;;0.50;0.50;;;;;;;3.23;69.98;99819.25;5199528;28;20037;-78
2021/12/09 05:39:18;;;;;;;0.60;0.60;;;;;;;3.15;70.22;99827.97;5186739;28;20065;-78
2021/12/09 05:41:50;;;;;;;2.03;1.92;;;;;;;3.19;69.92;99826.19;5184197;28;20057;-78
2021/12/09 05:44:21;;;;;;;0.50;0.50;;;;;;;3.21;70.31;99823.56;5191626;28;20369;-78
2021/12/09 05:46:52;;;;;;;1.05;1.05;;;;;;;3.18;69.88;99823.63;5191290;28;20087;-78
2021/12/09 05:49:23;;;;;;;0.68;0.68;;;;;;;3.18;69.51;99823.63;5181709;28;20048;-79
2021/12/09 05:51:53;;;;;;;0.70;0.70;;;;;;;3.18;70.10;99836.59;5195997;28;20033;-79
2021/12/09 05:54:24;;;;;;;0.50;0.50;;;;;;;3.14;69.83;99834.03;5175974;28;20612;-78
2021/12/09 05:56:55;;;;;;;0.50;0.50;;;;;;;3.11;69.69;99844.41;5180998;28;20433;-78
2021/12/09 05:59:26;;;;;;;1.05;1.05;;;;;;;3.11;69.85;99844.41;5174755;28;20071;-79
2021/12/09 06:01:57;;;;;;;1.30;1.17;;;;;;;3.07;69.68;99845.34;5195248;28;20064;-78
2021/12/09 06:04:28;;;;;;;0.40;0.40;;;;;;;3.06;69.96;99848.78;5176160;28;20068;-78
2021/12/09 06:06:58;;;;;;;0.85;0.85;;;;;;;3.05;69.61;99857.44;5197386;28;20098;-78
2021/12/09 06:09:29;;;;;;;0.73;0.73;;;;;;;3.05;69.18;99843.63;5172953;28;20045;-77
2021/12/09 06:11:59;;;;;;;5.25;2.38;;;;;;;2.96;69.96;99848.03;5183107;28;20076;-78
2021/12/09 06:14:30;;;;;;;0.60;0.60;;;;;;;3.01;69.20;99854.91;5187402;28;20104;-78
2021/12/09 06:17:01;;;;;;;0.60;0.60;;;;;;;3.01;69.61;99853.19;5183860;28;20032;-78
2021/12/09 06:19:31;;;;;;;7.70;1.92;;;;;;;2.95;69.58;99850.63;5173800;28;20053;-78
2021/12/09 06:22:02;;;;;;;1.73;1.63;;;;;;;2.95;69.32;99850.63;5195540;28;21941;-78
2021/12/09 06:24:33;;;;;;;0.77;0.77;;;;;;;2.95;69.89;99861.00;5193831;28;20033;-79
2021/12/09 06:27:06;;;;;;;0.47;0.47;;;;;;;2.92;69.08;99863.63;5196915;28;20030;-77
2021/12/09 06:29:37;;;;;;;9.60;4.20;;;;;;;2.87;69.52;99862.78;5169994;28;20045;-78
2021/12/09 06:32:08;;;;;;;0.60;0.60;;;;;;;2.85;69.66;99865.41;5177127;28;20076;-79
2021/12/09 06:34:38;;;;;;;0.50;0.50;;;;;;;2.86;69.15;99859.34;5182903;28;20045;-78
2021/12/09 06:37:09;;;;;;;0.77;0.77;;;;;;;2.84;69.13;99874.06;5188783;28;20073;-80
2021/12/09 06:39:40;;;;;;;0.60;0.60;;;;;;;2.75;69.62;99864.66;5189777;28;20112;-78
2021/12/09 06:42:11;;;;;;;0.70;0.70;;;;;;;2.70;70.11;99866.41;5174952;28;20060;-80
2021/12/09 06:44:42;;;;;;;0.73;0.73;;;;;;;2.68;70.23;99865.56;5188056;28;20052;-80
2021/12/09 06:47:12;;;;;;;3.50;2.45;;;;;;;2.69;69.27;99862.09;5157055;28;20075;-78
2021/12/09 06:49:43;;;;;;;0.68;0.68;;;;;;;2.63;69.57;99862.13;5158561;28;20046;-80
2021/12/09 06:52:14;;;;;;;4.05;1.88;;;;;;;2.60;70.16;99864.78;5169537;28;20060;-78
2021/12/09 06:54:45;;;;;;;1.45;1.40;;;;;;;2.58;70.45;99871.69;5170040;28;20444;-77
2021/12/09 06:57:15;;;;;;;0.90;0.90;;;;;;;2.59;70.17;99863.91;5196121;28;20025;-77
2021/12/09 06:59:46;;;;;;;0.60;0.60;;;;;;;2.53;70.33;99869.13;5185924;28;20093;-78
2021/12/09 07:02:17;;;;;;;1.15;1.15;;;;;;;2.55;70.37;99866.53;5215811;28;20029;-79
2021/12/09 07:04:48;;;;;;;1.30;1.20;;;;;;;2.55;70.43;99869.13;5192254;28;20033;-80
2021/12/09 07:07:18;;;;;;;1.02;0.93;;;;;;;2.52;70.55;99873.44;5177238;28;20021;-80
2021/12/09 07:09:49;;;;;;;0.50;0.50;;;;;;;2.57;70.49;99882.91;5199544;28;20029;-82
2021/12/09 07:12:19;;;;;;;0.50;0.50;;;;;;;2.55;70.39;99871.69;5177439;28;20542;-78
2021/12/09 07:14:51;;;;;;;4.05;1.77;;;;;;;2.49;70.39;99877.78;5171704;28;20050;-78
2021/12/09 07:17:21;;;;;;;0.40;0.40;;;;;;;2.45;70.62;99874.34;5194786;28;20145;-79
2021/12/09 07:19:52;;;;;;;1.45;1.40;;;;;;;2.58;71.88;99877.72;5173823;28;20033;-80
2021/12/09 07:22:25;;;;;;;1.77;1.67;;;;;;;2.46;72.13;99880.41;5174411;28;20033;-78
2021/12/09 07:24:56;;;;;;;0.55;0.55;;;;;;;2.44;72.10;99885.59;5177930;28;20030;-78
2021/12/09 07:27:26;;;;;;;1.70;1.60;;;;;;;2.50;71.95;99879.50;5196195;28;20111;-81
2021/12/09 07:29:57;;;;;;;0.50;0.50;;;;;;;2.52;72.12;99883.78;5169785;28;20049;-80
2021/12/09 07:32:27;;;;;;;0.40;0.40;;;;;;;2.57;72.24;99877.75;5165304;28;20053;-79
2021/12/09 07:34:58;;;;;;;3.22;2.45;;;;;;;2.54;71.86;99880.34;5183104;28;20041;-79
2021/12/09 07:37:29;;;;;;;2.35;2.13;;;;;;;2.58;72.47;99876.88;5191250;28;20287;-79
2021/12/09 07:39:59;;;;;;;0.50;0.50;;;;;;;2.64;71.76;99882.00;5151751;28;20045;-78
2021/12/09 07:42:30;;;;;;;0.47;0.47;;;;;;;2.64;71.69;99879.41;5161979;28;20676;-80
2021/12/09 07:45:01;;;;;;;1.67;1.58;;;;;;;2.68;71.76;99878.53;5171391;28;20037;-78
2021/12/09 07:47:32;;;;;;;1.35;1.25;;;;;;;2.67;71.95;99881.97;5175848;28;20713;-78
2021/12/09 07:50:05;;;;;;;0.43;0.43;;;;;;;2.64;72.28;99887.19;5164615;28;20045;-78
2021/12/09 07:52:35;;;;;;;1.07;1.03;;;;;;;2.68;71.49;99878.53;5198618;28;20070;-79
2021/12/09 07:55:06;;;;;;;0.50;0.50;;;;;;;2.74;71.66;99882.78;5193290;28;20034;-79
2021/12/09 07:57:38;;;;;;;0.40;0.40;;;;;;;2.66;72.28;99880.25;5190604;28;20042;-78
2021/12/09 08:00:12;;;;;;;0.50;0.50;;;;;;;2.72;71.82;99889.72;5188557;28;20033;-79
2021/12/09 08:02:45;;;;;;;0.82;0.82;;;;;;;2.67;72.10;99882.81;5176026;28;20531;-78
2021/12/09 08:05:19;;;;;;;0.73;0.73;;;;;;;2.70;72.05;99881.94;5177516;28;20044;-78
2021/12/09 08:07:49;;;;;;;0.80;0.80;;;;;;;2.71;71.80;99888.84;5182027;28;20029;-78
2021/12/09 08:10:22;;;;;;;1.50;1.40;;;;;;;2.72;71.88;99889.72;5193671;28;20041;-78
2021/12/09 08:12:53;;;;;;;0.60;0.60;;;;;;;2.76;71.91;99887.09;5182971;28;20034;-81
2021/12/09 08:15:26;;;;;;;0.68;0.68;;;;;;;2.77;71.21;99886.19;5178867;28;20037;-79
2021/12/09 08:18:01;;;;;;;0.30;0.30;;;;;;;2.76;72.08;99892.28;5162104;28;20126;-79
2021/12/09 08:20:32;;;;;;;0.50;0.50;;;;;;;2.66;73.06;99895.81;5159590;28;20041;-81
2021/12/09 08:23:03;;;;;;;0.60;0.60;;;;;;;2.74;72.31;99883.66;5160570;28;20048;-78
2021/12/09 08:25:33;;;;;;;1.85;1.58;;;;;;;2.75;71.88;99892.25;5205942;28;20112;-80
2021/12/09 08:28:04;;;;;;;0.52;0.52;;;;;;;2.72;72.07;99882.78;5198619;28;20082;-79
2021/12/09 08:30:36;;;;;;;0.70;0.70;;;;;;;2.73;71.83;99887.09;5163277;28;20559;-78
2021/12/09 08:33:08;;;;;;;0.80;0.80;;;;;;;2.77;72.84;99888.78;5177939;28;20050;-79
2021/12/09 08:35:38;;;;;;;0.50;0.50;;;;;;;2.75;72.88;99885.38;5192898;28;20086;-76
2021/12/09 08:38:09;;;;;;;0.50;0.50;;;;;;;2.77;72.35;99893.97;5177771;28;20362;-77
2021/12/09 08:40:42;;;;;;;0.60;0.60;;;;;;;2.69;73.22;99895.75;5176200;28;20621;-77
2021/12/09 08:43:13;;;;;;;0.90;0.90;;;;;;;2.78;72.65;99900.03;5198248;28;20038;-80
2021/12/09 08:45:44;;;;;;;0.40;0.40;;;;;;;2.77;73.30;99904.31;5177587;28;20068;-80
2021/12/09 08:48:16;;;;;;;0.40;0.40;;;;;;;2.72;73.68;99908.69;5158800;28;20062;-78
2021/12/09 08:50:46;;;;;;;0.35;0.35;;;;;;;2.74;73.62;99896.59;5171973;28;20049;-78
2021/12/09 08:53:22;;;;;;;0.90;0.90;;;;;;;2.81;73.95;99906.03;5166063;28;20025;-77
2021/12/09 08:55:54;;;;;;;0.50;0.50;;;;;;;2.89;74.07;99910.28;5164648;28;20046;-79
2021/12/09 08:58:27;;;;;;;0.50;0.50;;;;;;;2.76;75.02;99907.81;5182972;28;20056;-79
2021/12/09 09:01:00;;;;;;;0.40;0.40;;;;;;;2.76;74.01;99905.22;5181288;28;20069;-77
2021/12/09 09:03:31;;;;;;;0.77;0.77;;;;;;;2.76;74.99;99912.13;5180427;28;20037;-79
2021/12/09 09:06:02;;;;;;;0.50;0.50;;;;;;;2.84;74.56;99915.50;5174492;28;20037;-78
2021/12/09 09:08:33;;;;;;;0.60;0.60;;;;;;;2.90;74.39;99919.78;5159220;28;20029;-77
2021/12/09 09:11:04;;;;;;;0.60;0.60;;;;;;;2.84;75.06;99925.88;5177202;28;20537;-78
2021/12/09 09:13:35;;;;;;;1.35;1.25;;;;;;;2.73;75.97;99918.19;5195655;28;20038;-77
2021/12/09 09:16:05;;;;;;;0.50;0.50;;;;;;;2.81;75.32;99921.59;5211120;28;20037;-75
2021/12/09 09:18:36;;;;;;;0.50;0.50;;;;;;;3.01;74.24;99924.88;5193603;28;20040;-78
2021/12/09 09:21:06;;;;;;;0.50;0.50;;;;;;;2.94;74.79;99924.94;5179770;28;20076;-77
2021/12/09 09:23:37;;;;;;;0.50;0.50;;;;;;;2.95;75.79;99918.00;5163966;28;20132;-78
2021/12/09 09:26:07;;;;;;;15.10;2.50;;;;;;;2.96;75.32;99930.09;5197276;28;20038;-77
2021/12/09 09:28:39;;;;;;;0.60;0.60;;;;;;;2.92;75.76;99923.22;5199335;28;20049;-75
2021/12/09 09:31:10;;;;;;;3.33;2.15;;;;;;;2.96;76.47;99920.59;5180477;28;20088;-79
2021/12/09 09:33:41;;;;;;;0.47;0.47;;;;;;;2.89;76.47;99924.13;5180420;28;20099;-78
2021/12/09 09:36:11;;;;;;;0.50;0.50;;;;;;;2.97;75.66;99922.31;5179100;28;20030;-79
2021/12/09 09:38:42;;;;;;;0.95;0.95;;;;;;;2.99;76.28;99923.16;5197825;28;20022;-76
2021/12/09 09:41:16;;;;;;;2.20;1.35;;;;;;;2.98;76.41;99918.84;5177908;28;20061;-78
2021/12/09 09:46:22;;;;;;;0.95;0.95;;;;;;;3.06;76.94;99925.72;5177461;28;20053;-77
2021/12/09 09:48:53;;;;;;;;;;;;;;;3.09;75.94;99925.66;5188477;28;20533;-78
2021/12/09 09:51:25;;;;;;;0.40;0.40;;;;;;;3.17;76.23;99943.75;5163555;28;19963;-80
2021/12/09 09:53:57;;;;;;;1.83;1.77;;;;;;;3.06;76.41;99934.31;5185559;28;20690;-76
2021/12/09 09:56:28;;;;;;;0.40;0.40;;;;;;;3.12;76.50;99930.81;5178233;28;20067;-78
2021/12/09 09:59:02;;;;;;;1.35;1.25;;;;;;;3.18;76.00;99932.50;5192652;28;20042;-77
2021/12/09 10:01:35;;;;;;;2.85;1.23;;;;;;;3.29;75.77;99938.44;5172625;28;20060;-81
2021/12/09 10:04:12;;;;;;;0.50;0.50;;;;;;;3.23;76.20;99948.88;5179103;28;20045;-80
2021/12/09 10:06:47;;;;;;;0.55;0.55;;;;;;;3.37;74.91;99946.16;5206297;28;20033;-81
2021/12/09 10:09:17;;;;;;;0.82;0.82;;;;;;;3.36;76.05;99947.88;5178787;28;20038;-78
2021/12/09 10:11:48;;;;;;;0.55;0.55;;;;;;;3.43;76.20;99941.75;5194835;28;20045;-77
2021/12/09 10:14:22;;;;;;;1.85;0.93;;;;;;;3.38;76.53;99938.34;5189730;28;20037;-80
2021/12/09 10:17:23;;;;;;;0.60;0.60;;;;;;;3.41;75.99;99937.44;5185441;28;20026;-78
2021/12/09 10:19:57;;;;;;;0.50;0.50;;;;;;;3.43;76.99;99936.56;5169568;28;20495;-78
2021/12/09 10:22:31;;;;;;;0.50;0.50;;;;;;;3.58;76.04;99929.50;5176521;28;20025;-77
2021/12/09 10:25:16;;;;;;;0.60;0.60;;;;;;;3.67;75.62;99924.22;5177222;28;20041;-77
2021/12/09 10:28:00;;;;;;;0.60;0.60;;;;;;;3.59;75.84;99920.84;5190015;28;20018;-79
2021/12/09 10:30:36;;;;;;;0.40;0.40;;;;;;;3.61;76.06;99912.16;5173195;28;20050;-80
2021/12/09 10:33:07;;;;;;;0.50;0.50;;;;;;;3.60;76.84;99909.56;5198991;28;20048;-77
2021/12/09 10:35:40;;;;;;;0.75;0.75;;;;;;;3.66;76.41;99906.06;5172060;28;20072;-79
2021/12/09 10:38:11;;;;;;;0.40;0.40;;;;;;;3.71;75.92;99910.31;5182946;28;20018;-78
2021/12/09 10:40:41;;;;;;;0.40;0.40;;;;;;;3.71;76.81;99910.31;5175366;28;20167;-80
2021/12/09 10:43:17;;;;;;;0.40;0.40;;;;;;;3.74;76.14;99905.09;5191181;28;20056;-79
2021/12/09 10:45:48;;;;;;;0.50;0.50;;;;;;;3.80;75.70;99898.97;5172057;28;20327;-78
2021/12/09 10:53:35;;;;;;;1.23;1.23;;;;;;;3.86;76.14;99898.03;5189477;28;20072;-81
2021/12/09 10:56:10;;;;;;;0.60;0.60;;;;;;;3.89;76.17;99896.25;5169648;28;20548;-78
2021/12/09 10:58:44;;;;;;;2.75;2.35;;;;;;;3.94;75.48;99893.59;5190934;28;20109;-81
2021/12/09 11:01:16;;;;;;;;;;;;;;;3.93;76.13;99890.16;5191009;28;20041;-78
2021/12/09 11:03:50;;;;;;;4.97;2.80;;;;;;;3.94;76.69;99886.69;5177844;28;19913;-79
2021/12/09 11:06:22;;;;;;;0.80;0.80;;;;;;;4.00;76.27;99890.94;5190990;28;20403;-79
2021/12/09 11:08:55;;;;;;;0.88;0.88;;;;;;;3.95;76.12;99890.13;5181961;28;20141;-79
2021/12/09 11:11:31;;;;;;;0.63;0.63;;;;;;;4.01;75.85;99882.25;5190055;28;20033;-78
2021/12/09 11:14:14;;;;;;;0.50;0.50;;;;;;;4.06;76.25;99877.88;5191512;28;20025;-77
2021/12/09 11:16:51;;;;;;;0.98;0.98;;;;;;;4.12;75.77;99874.34;5154529;28;20116;-79
2021/12/09 11:22:08;;;;;;;0.60;0.60;;;;;;;4.16;75.77;99870.78;5191837;28;20539;-81
2021/12/09 11:24:43;;;;;;;1.08;1.08;;;;;;;4.19;76.15;99870.75;5187650;28;20034;-80
2021/12/09 11:27:22;;;;;;;0.77;0.77;;;;;;;4.18;75.94;99862.97;5179732;28;20022;-80
2021/12/09 11:29:59;;;;;;;0.40;0.40;;;;;;;4.12;75.72;99856.16;5152049;28;20589;-77
2021/12/09 11:32:44;;;;;;;0.52;0.52;;;;;;;4.12;76.19;99863.06;5191808;28;20032;-78
2021/12/09 11:35:27;;;;;;;0.60;0.60;;;;;;;4.16;76.41;99856.97;5154186;28;20029;-77
2021/12/09 11:38:07;;;;;;;9.68;1.70;;;;;;;4.17;76.56;99858.69;5173559;28;20547;-79
2021/12/09 11:40:44;;;;;;;0.80;0.80;;;;;;;4.17;76.09;99856.09;5210568;28;20109;-79
2021/12/09 11:43:24;;;;;;;0.45;0.45;;;;;;;4.23;75.56;99851.66;5203000;28;20446;-78
2021/12/09 11:45:57;;;;;;;0.47;0.47;;;;;;;4.24;76.28;99842.13;5172024;28;20463;-80
2021/12/09 11:48:28;;;;;;;0.50;0.50;;;;;;;4.28;76.46;99846.38;5176860;28;20088;-79
2021/12/09 11:50:58;;;;;;;0.55;0.55;;;;;;;4.23;76.89;99846.44;5170325;28;20041;-79
2021/12/09 11:53:33;;;;;;;0.50;0.50;;;;;;;4.27;76.82;99847.25;5158772;28;20083;-81
2021/12/09 11:56:21;;;;;;;0.80;0.80;;;;;;;4.32;76.64;99849.78;5165004;28;20629;-82
2021/12/09 11:59:21;;;;;;;0.40;0.40;;;;;;;4.31;76.43;99843.75;5203465;28;20064;-79
2021/12/09 12:11:28;;;;;;;0.50;0.50;;;;;;;4.30;75.89;99839.44;5192862;28;20057;-81
2021/12/09 12:14:18;;;;;;;0.52;0.52;;;;;;;4.31;75.74;99842.88;5184761;28;20025;-79
2021/12/09 12:17:09;;;;;;;12.60;2.05;;;;;;;4.35;75.82;99844.56;5176474;28;20029;-79
2021/12/09 12:22:52;;;;;;;0.45;0.45;;;;;;;4.38;75.50;99847.97;5178174;28;20030;-80
2021/12/09 12:42:30;;;;;;;1.15;1.10;;;;;;;4.33;75.98;99852.38;5182625;28;20026;-80
2021/12/09 12:45:43;;;;;;;0.40;0.40;;;;;;;4.40;75.44;99847.94;5188682;28;20608;-81
2021/12/09 12:51:25;;;;;;;0.52;0.52;;;;;;;4.38;75.38;99850.56;5197471;28;20049;-80
2021/12/09 12:54:19;;;;;;;0.65;0.65;;;;;;;4.30;75.60;99847.22;5166343;28;20029;-79